AZM9552 DNAA-KBWI
Flight info
| Callsign | AZM9552 |
|---|---|
| Flight time | N/A |
| Altitude | 32000 |
| Route | POGVO UL684 BOVDA UT365 NY UR981 BAKAB UT365 UNAGA/N0497F340 UT365 MIYEC N728 CABOJ Y611 ROSTA DCT OSLEV/N0482F360 DCT RIPOD/M083F360 DCT 32N029W 34N035W 36N041W 38N048W/M083F380 39N055W 40N062W/N0473F380 DCT BORQE DCT SEY Q220 ALBOW Q167 RIFLE Q430 RBV Q34 PNGWN DCT BAINS TRISH4 |
| Aircraft | A346/H-SDE2E3FGHIJ3J4J5M1RWXY/LB1D1 |
Departure
| Time | 2026-04-26 00:38 |
|---|---|
| Airport | Nnamdi Azikiwe International Airport (DNAA) |
Arrival
| Time | N/A |
|---|---|
| Airport | Baltimore/Washington International Thurgood Marshall Airport (KBWI) |
| Time | Latitude | Longitude | Altitude | Speed | Heading |
|---|---|---|---|---|---|
| 2026-04-26 00:20 | 9.00490 | 7.26883 | 1140 ft | 0 kts | 73° |
| 2026-04-26 00:27 | 9.00490 | 7.26884 | 1139 ft | 0 kts | 73° |
| 2026-04-26 00:28 | 9.00491 | 7.26885 | 1139 ft | 1 kts | 67° |
| 2026-04-26 00:28 | 9.00505 | 7.26883 | 1144 ft | 5 kts | 300° |
| 2026-04-26 00:28 | 9.00532 | 7.26841 | 1139 ft | 13 kts | 307° |
| 2026-04-26 00:28 | 9.00611 | 7.26756 | 1141 ft | 17 kts | 314° |
| 2026-04-26 00:29 | 9.00688 | 7.26668 | 1139 ft | 16 kts | 308° |
| 2026-04-26 00:29 | 9.00759 | 7.26598 | 1140 ft | 7 kts | 340° |
| 2026-04-26 00:29 | 9.00814 | 7.26619 | 1142 ft | 12 kts | 30° |
| 2026-04-26 00:29 | 9.00884 | 7.26660 | 1143 ft | 11 kts | 34° |
| 2026-04-26 00:30 | 9.00951 | 7.26709 | 1140 ft | 13 kts | 36° |
| 2026-04-26 00:30 | 9.01023 | 7.26761 | 1143 ft | 12 kts | 36° |
| 2026-04-26 00:30 | 9.01092 | 7.26811 | 1145 ft | 12 kts | 36° |
| 2026-04-26 00:30 | 9.01207 | 7.26895 | 1145 ft | 24 kts | 35° |
| 2026-04-26 00:31 | 9.01341 | 7.26991 | 1147 ft | 23 kts | 35° |
| 2026-04-26 00:31 | 9.01472 | 7.27084 | 1149 ft | 23 kts | 35° |
| 2026-04-26 00:31 | 9.01593 | 7.27170 | 1150 ft | 15 kts | 35° |
| 2026-04-26 00:31 | 9.01623 | 7.27191 | 1150 ft | 8 kts | 35° |
| 2026-04-26 00:32 | 9.01725 | 7.27264 | 1151 ft | 21 kts | 35° |
| 2026-04-26 00:32 | 9.01847 | 7.27347 | 1153 ft | 20 kts | 26° |
| 2026-04-26 00:32 | 9.01961 | 7.27224 | 1152 ft | 11 kts | 232° |
| 2026-04-26 00:33 | 9.01956 | 7.27219 | 1151 ft | 0 kts | 217° |
| 2026-04-26 00:36 | 9.01950 | 7.27215 | 1152 ft | 4 kts | 217° |
| 2026-04-26 00:36 | 9.01785 | 7.27095 | 1151 ft | 64 kts | 215° |
| 2026-04-26 00:37 | 9.01231 | 7.26706 | 1146 ft | 128 kts | 214° |
| 2026-04-26 00:37 | 9.00337 | 7.26081 | 1136 ft | 183 kts | 214° |
| 2026-04-26 00:37 | 8.99221 | 7.25302 | 1492 ft | 200 kts | 213° |
| 2026-04-26 00:37 | 8.98415 | 7.24734 | 1865 ft | 0 kts | 214° |
| 2026-04-26 00:38 | 8.98040 | 7.24465 | 2065 ft | 210 kts | 214° |
| 2026-04-26 00:38 | 8.96825 | 7.23590 | 2769 ft | 218 kts | 214° |
| 2026-04-26 00:38 | 8.95543 | 7.22700 | 3387 ft | 229 kts | 213° |
| 2026-04-26 00:38 | 8.94184 | 7.21753 | 3614 ft | 246 kts | 214° |
| 2026-04-26 00:39 | 8.92734 | 7.20726 | 3835 ft | 260 kts | 214° |
| 2026-04-26 00:39 | 8.91203 | 7.19629 | 3976 ft | 280 kts | 214° |
| 2026-04-26 00:39 | 8.89583 | 7.18452 | 4283 ft | 292 kts | 214° |
| 2026-04-26 00:39 | 8.88055 | 7.17099 | 4854 ft | 293 kts | 234° |
| 2026-04-26 00:40 | 8.87316 | 7.15189 | 5451 ft | 296 kts | 265° |
| 2026-04-26 00:40 | 8.87622 | 7.13147 | 5977 ft | 297 kts | 297° |
| 2026-04-26 00:40 | 8.88862 | 7.11501 | 6512 ft | 295 kts | 320° |
| 2026-04-26 00:40 | 8.90547 | 7.10318 | 6975 ft | 297 kts | 331° |
| 2026-04-26 00:41 | 8.92330 | 7.09246 | 7457 ft | 299 kts | 331° |
| 2026-04-26 00:41 | 8.94092 | 7.08164 | 7996 ft | 300 kts | 331° |
| 2026-04-26 00:41 | 8.95896 | 7.07032 | 8508 ft | 302 kts | 331° |
| 2026-04-26 00:41 | 8.97684 | 7.05893 | 9023 ft | 304 kts | 331° |
| 2026-04-26 00:42 | 8.99475 | 7.04743 | 9498 ft | 306 kts | 331° |
| 2026-04-26 00:42 | 9.01272 | 7.03582 | 9962 ft | 308 kts | 331° |
| 2026-04-26 00:42 | 9.03085 | 7.02412 | 10410 ft | 309 kts | 330° |
| 2026-04-26 00:42 | 9.04873 | 7.01255 | 10867 ft | 310 kts | 330° |
| 2026-04-26 00:43 | 9.06714 | 7.00060 | 11326 ft | 311 kts | 330° |
| 2026-04-26 00:43 | 9.08028 | 6.99154 | 11662 ft | 313 kts | 328° |
| 2026-04-26 00:44 | 9.09834 | 6.97905 | 12101 ft | 315 kts | 328° |
| 2026-04-26 00:44 | 9.11657 | 6.96664 | 12547 ft | 317 kts | 328° |
| 2026-04-26 00:44 | 9.13508 | 6.95414 | 13018 ft | 319 kts | 328° |
| 2026-04-26 00:44 | 9.15376 | 6.94159 | 13482 ft | 320 kts | 328° |
| 2026-04-26 00:45 | 9.17249 | 6.92906 | 13881 ft | 323 kts | 328° |
| 2026-04-26 00:45 | 9.19132 | 6.91652 | 14252 ft | 325 kts | 328° |
| 2026-04-26 00:45 | 9.21010 | 6.90360 | 14614 ft | 328 kts | 322° |
| 2026-04-26 00:45 | 9.22711 | 6.88799 | 14910 ft | 334 kts | 317° |
| 2026-04-26 00:46 | 9.24376 | 6.87101 | 15089 ft | 344 kts | 316° |
| 2026-04-26 00:46 | 9.26081 | 6.85355 | 15240 ft | 353 kts | 316° |
| 2026-04-26 00:46 | 9.27839 | 6.83574 | 15427 ft | 362 kts | 317° |
| 2026-04-26 00:46 | 9.29657 | 6.81761 | 15588 ft | 371 kts | 316° |
| 2026-04-26 00:47 | 9.31523 | 6.79909 | 15746 ft | 380 kts | 317° |
| 2026-04-26 00:47 | 9.33439 | 6.78018 | 15931 ft | 389 kts | 317° |
| 2026-04-26 00:47 | 9.35403 | 6.76088 | 16098 ft | 398 kts | 317° |
| 2026-04-26 00:47 | 9.37421 | 6.74113 | 16258 ft | 407 kts | 317° |
| 2026-04-26 00:48 | 9.39478 | 6.72101 | 16446 ft | 415 kts | 317° |
| 2026-04-26 00:48 | 9.41566 | 6.70046 | 16710 ft | 421 kts | 316° |
| 2026-04-26 00:48 | 9.43676 | 6.67977 | 17066 ft | 423 kts | 316° |
| 2026-04-26 00:48 | 9.45796 | 6.65901 | 17479 ft | 425 kts | 316° |
| 2026-04-26 00:49 | 9.47923 | 6.63813 | 17879 ft | 426 kts | 316° |
| 2026-04-26 00:49 | 9.50061 | 6.61714 | 18233 ft | 429 kts | 316° |
| 2026-04-26 00:49 | 9.52213 | 6.59600 | 18531 ft | 431 kts | 316° |
| 2026-04-26 00:49 | 9.54373 | 6.57481 | 18842 ft | 433 kts | 316° |
| 2026-04-26 00:50 | 9.56541 | 6.55353 | 19172 ft | 435 kts | 316° |
| 2026-04-26 00:50 | 9.58715 | 6.53218 | 19513 ft | 436 kts | 316° |
| 2026-04-26 00:50 | 9.60900 | 6.51073 | 19862 ft | 437 kts | 315° |
| 2026-04-26 00:50 | 9.63088 | 6.48923 | 20202 ft | 439 kts | 315° |
| 2026-04-26 00:51 | 9.65285 | 6.46765 | 20524 ft | 441 kts | 315° |
| 2026-04-26 00:51 | 9.67493 | 6.44598 | 20860 ft | 442 kts | 315° |
| 2026-04-26 00:51 | 9.69703 | 6.42426 | 21188 ft | 443 kts | 315° |
| 2026-04-26 00:51 | 9.71920 | 6.40244 | 21480 ft | 445 kts | 315° |
| 2026-04-26 00:52 | 9.74149 | 6.38052 | 21745 ft | 447 kts | 315° |
| 2026-04-26 00:52 | 9.76388 | 6.35853 | 22053 ft | 448 kts | 315° |
| 2026-04-26 00:52 | 9.78629 | 6.33649 | 22361 ft | 449 kts | 315° |
| 2026-04-26 00:52 | 9.80879 | 6.31434 | 22607 ft | 451 kts | 315° |
| 2026-04-26 00:53 | 9.83139 | 6.29211 | 22856 ft | 453 kts | 315° |
| 2026-04-26 00:53 | 9.85405 | 6.26981 | 23089 ft | 455 kts | 315° |
| 2026-04-26 00:53 | 9.87682 | 6.24740 | 23338 ft | 457 kts | 315° |
| 2026-04-26 00:53 | 9.89967 | 6.22490 | 23587 ft | 458 kts | 315° |
| 2026-04-26 00:54 | 9.92258 | 6.20234 | 23823 ft | 460 kts | 315° |
| 2026-04-26 00:54 | 9.94558 | 6.17968 | 24053 ft | 462 kts | 315° |
| 2026-04-26 00:54 | 9.96870 | 6.15690 | 24271 ft | 463 kts | 315° |
| 2026-04-26 00:54 | 9.99154 | 6.13440 | 24496 ft | 465 kts | 315° |
| 2026-04-26 00:55 | 10.01478 | 6.11149 | 24726 ft | 467 kts | 315° |
| 2026-04-26 00:55 | 10.03814 | 6.08847 | 24944 ft | 468 kts | 315° |
| 2026-04-26 00:55 | 10.06156 | 6.06539 | 25150 ft | 470 kts | 315° |
| 2026-04-26 00:55 | 10.08504 | 6.04224 | 25334 ft | 472 kts | 315° |
| 2026-04-26 00:56 | 10.10865 | 6.01897 | 25540 ft | 473 kts | 315° |
| 2026-04-26 00:56 | 10.13227 | 5.99567 | 25757 ft | 475 kts | 315° |
| 2026-04-26 00:56 | 10.15599 | 5.97225 | 25964 ft | 476 kts | 315° |
| 2026-04-26 00:56 | 10.17980 | 5.94875 | 26152 ft | 478 kts | 315° |
| 2026-04-26 00:57 | 10.20372 | 5.92515 | 26338 ft | 480 kts | 315° |
| 2026-04-26 00:57 | 10.22774 | 5.90142 | 26531 ft | 482 kts | 315° |
| 2026-04-26 00:57 | 10.25182 | 5.87765 | 26740 ft | 483 kts | 315° |
| 2026-04-26 00:57 | 10.27601 | 5.85375 | 26942 ft | 485 kts | 315° |
| 2026-04-26 00:58 | 10.30023 | 5.82983 | 27147 ft | 487 kts | 315° |
| 2026-04-26 00:58 | 10.32457 | 5.80579 | 27345 ft | 488 kts | 315° |
| 2026-04-26 00:58 | 10.34896 | 5.78167 | 27536 ft | 490 kts | 315° |
| 2026-04-26 00:58 | 10.37344 | 5.75747 | 27722 ft | 492 kts | 315° |
| 2026-04-26 00:59 | 10.39803 | 5.73316 | 27919 ft | 493 kts | 315° |
| 2026-04-26 00:59 | 10.41434 | 5.71702 | 28041 ft | 494 kts | 315° |
| 2026-04-26 00:59 | 10.43904 | 5.69262 | 28211 ft | 496 kts | 315° |
| 2026-04-26 00:59 | 10.46377 | 5.66813 | 28401 ft | 497 kts | 314° |
| 2026-04-26 01:00 | 10.48857 | 5.64362 | 28609 ft | 497 kts | 314° |
| 2026-04-26 01:00 | 10.51333 | 5.61907 | 28834 ft | 497 kts | 314° |
| 2026-04-26 01:00 | 10.53805 | 5.59455 | 29096 ft | 496 kts | 314° |
| 2026-04-26 01:00 | 10.56272 | 5.57011 | 29389 ft | 494 kts | 314° |
| 2026-04-26 01:01 | 10.58732 | 5.54577 | 29667 ft | 493 kts | 314° |
| 2026-04-26 01:01 | 10.61186 | 5.52148 | 29893 ft | 492 kts | 314° |
| 2026-04-26 01:01 | 10.63637 | 5.49716 | 30070 ft | 492 kts | 314° |
| 2026-04-26 01:01 | 10.66094 | 5.47283 | 30224 ft | 493 kts | 314° |
| 2026-04-26 01:02 | 10.68549 | 5.44853 | 30390 ft | 493 kts | 314° |
| 2026-04-26 01:02 | 10.71001 | 5.42418 | 30562 ft | 492 kts | 314° |
| 2026-04-26 01:02 | 10.73456 | 5.39980 | 30715 ft | 493 kts | 314° |
| 2026-04-26 01:02 | 10.75907 | 5.37544 | 30855 ft | 493 kts | 314° |
| 2026-04-26 01:03 | 10.78366 | 5.35110 | 30995 ft | 493 kts | 314° |
| 2026-04-26 01:03 | 10.80817 | 5.32671 | 31130 ft | 493 kts | 314° |
| 2026-04-26 01:03 | 10.85738 | 5.27784 | 31313 ft | 495 kts | 314° |
| 2026-04-26 01:04 | 10.88206 | 5.25338 | 31455 ft | 495 kts | 314° |
| 2026-04-26 01:04 | 10.90670 | 5.22889 | 31615 ft | 495 kts | 314° |
| 2026-04-26 01:04 | 10.93133 | 5.20437 | 31777 ft | 495 kts | 314° |
| 2026-04-26 01:04 | 10.95597 | 5.17988 | 31882 ft | 495 kts | 313° |
| 2026-04-26 01:05 | 11.00522 | 5.13090 | 31895 ft | 495 kts | 314° |
| 2026-04-26 01:05 | 11.05452 | 5.08178 | 31900 ft | 496 kts | 314° |
| 2026-04-26 01:06 | 11.10389 | 5.03267 | 31902 ft | 496 kts | 314° |
| 2026-04-26 01:06 | 11.15332 | 4.98350 | 31901 ft | 496 kts | 314° |
| 2026-04-26 01:07 | 11.20266 | 4.93435 | 31901 ft | 496 kts | 314° |
| 2026-04-26 01:07 | 11.25207 | 4.88508 | 31901 ft | 496 kts | 314° |
| 2026-04-26 01:08 | 11.30140 | 4.83585 | 31908 ft | 496 kts | 313° |
| 2026-04-26 01:08 | 11.35071 | 4.78658 | 31902 ft | 496 kts | 314° |
| 2026-04-26 01:09 | 11.40006 | 4.73736 | 31898 ft | 496 kts | 314° |
| 2026-04-26 01:09 | 11.44944 | 4.68802 | 31890 ft | 497 kts | 314° |
| 2026-04-26 01:10 | 11.49878 | 4.63872 | 31889 ft | 496 kts | 314° |
| 2026-04-26 01:10 | 11.54811 | 4.58943 | 31890 ft | 496 kts | 314° |
| 2026-04-26 01:11 | 11.59737 | 4.54007 | 31875 ft | 497 kts | 314° |
| 2026-04-26 01:11 | 11.64648 | 4.49093 | 31883 ft | 498 kts | 314° |
| 2026-04-26 01:12 | 11.69589 | 4.44153 | 31877 ft | 496 kts | 314° |
| 2026-04-26 01:12 | 11.74516 | 4.39213 | 31866 ft | 496 kts | 314° |
| 2026-04-26 01:13 | 11.79449 | 4.34267 | 31868 ft | 496 kts | 314° |
| 2026-04-26 01:13 | 11.84377 | 4.29325 | 31865 ft | 496 kts | 314° |
| 2026-04-26 01:14 | 11.89303 | 4.24374 | 31851 ft | 496 kts | 313° |
| 2026-04-26 01:14 | 11.94039 | 4.19245 | 31851 ft | 496 kts | 311° |
| 2026-04-26 01:15 | 11.98735 | 4.14081 | 31854 ft | 496 kts | 311° |
| 2026-04-26 01:15 | 12.03433 | 4.08923 | 31842 ft | 494 kts | 311° |
| 2026-04-26 01:16 | 12.08116 | 4.03780 | 31842 ft | 494 kts | 311° |
| 2026-04-26 01:16 | 12.12792 | 3.98640 | 31843 ft | 493 kts | 311° |
| 2026-04-26 01:17 | 12.17473 | 3.93496 | 31839 ft | 494 kts | 311° |
| 2026-04-26 01:17 | 12.22151 | 3.88353 | 31840 ft | 494 kts | 311° |
| 2026-04-26 01:18 | 12.26830 | 3.83205 | 31834 ft | 494 kts | 311° |
| 2026-04-26 01:18 | 12.31474 | 3.78092 | 31829 ft | 493 kts | 311° |
| 2026-04-26 01:19 | 12.36150 | 3.72944 | 31831 ft | 493 kts | 311° |
| 2026-04-26 01:19 | 12.40850 | 3.67770 | 31836 ft | 491 kts | 311° |
| 2026-04-26 01:20 | 12.45396 | 3.62567 | 31833 ft | 489 kts | 307° |
| 2026-04-26 01:20 | 12.49507 | 3.57072 | 31831 ft | 489 kts | 305° |
| 2026-04-26 01:21 | 12.53574 | 3.51495 | 31831 ft | 489 kts | 305° |
| 2026-04-26 01:21 | 12.57650 | 3.45907 | 31829 ft | 489 kts | 305° |
| 2026-04-26 01:22 | 12.61711 | 3.40321 | 31828 ft | 489 kts | 304° |
| 2026-04-26 01:22 | 12.65770 | 3.34730 | 31826 ft | 489 kts | 304° |
| 2026-04-26 01:23 | 12.69830 | 3.29136 | 31826 ft | 489 kts | 304° |
| 2026-04-26 01:23 | 12.73886 | 3.23548 | 31826 ft | 488 kts | 304° |
| 2026-04-26 01:24 | 12.77935 | 3.17968 | 31812 ft | 485 kts | 304° |
| 2026-04-26 01:24 | 12.81957 | 3.12419 | 31824 ft | 484 kts | 304° |
| 2026-04-26 01:25 | 12.85971 | 3.06877 | 31828 ft | 484 kts | 304° |
| 2026-04-26 01:25 | 12.89983 | 3.01335 | 31818 ft | 484 kts | 304° |
| 2026-04-26 01:26 | 12.93990 | 2.95797 | 31822 ft | 484 kts | 304° |
| 2026-04-26 01:26 | 12.98000 | 2.90251 | 31809 ft | 484 kts | 304° |
| 2026-04-26 01:27 | 13.02010 | 2.84703 | 31821 ft | 484 kts | 304° |
| 2026-04-26 01:27 | 13.05990 | 2.79193 | 31808 ft | 484 kts | 304° |
| 2026-04-26 01:28 | 13.09999 | 2.73639 | 31819 ft | 484 kts | 304° |
| 2026-04-26 01:28 | 13.14002 | 2.68094 | 31813 ft | 482 kts | 304° |
| 2026-04-26 01:29 | 13.17991 | 2.62560 | 31816 ft | 481 kts | 304° |
| 2026-04-26 01:29 | 13.21972 | 2.57033 | 31815 ft | 481 kts | 304° |
| 2026-04-26 01:30 | 13.25955 | 2.51502 | 31813 ft | 481 kts | 304° |
| 2026-04-26 01:30 | 13.29931 | 2.45977 | 31828 ft | 481 kts | 304° |
| 2026-04-26 01:31 | 13.33910 | 2.40445 | 31814 ft | 481 kts | 304° |
| 2026-04-26 01:31 | 13.37889 | 2.34912 | 31810 ft | 481 kts | 304° |
| 2026-04-26 01:32 | 13.41866 | 2.29375 | 31810 ft | 481 kts | 304° |
| 2026-04-26 01:32 | 13.46017 | 2.23979 | 31809 ft | 481 kts | 309° |
| 2026-04-26 01:33 | 13.50671 | 2.19014 | 31812 ft | 482 kts | 314° |
| 2026-04-26 01:33 | 13.55787 | 2.14542 | 31813 ft | 483 kts | 319° |
| 2026-04-26 01:34 | 13.61093 | 2.10299 | 31810 ft | 483 kts | 320° |
| 2026-04-26 01:34 | 13.66408 | 2.06062 | 31809 ft | 483 kts | 320° |
| 2026-04-26 01:35 | 13.71721 | 2.01821 | 31811 ft | 483 kts | 319° |
| 2026-04-26 01:35 | 13.77025 | 1.97582 | 31811 ft | 483 kts | 319° |
| 2026-04-26 01:36 | 13.82298 | 1.93365 | 31807 ft | 483 kts | 319° |
| 2026-04-26 01:37 | 13.90249 | 1.87002 | 31810 ft | 482 kts | 319° |
| 2026-04-26 01:37 | 13.95539 | 1.82766 | 31808 ft | 482 kts | 319° |
| 2026-04-26 01:38 | 14.00827 | 1.78528 | 31808 ft | 482 kts | 319° |
| 2026-04-26 01:38 | 14.06115 | 1.74288 | 31807 ft | 482 kts | 319° |
| 2026-04-26 01:39 | 14.11405 | 1.70044 | 31806 ft | 482 kts | 319° |
| 2026-04-26 01:39 | 14.16691 | 1.65800 | 31804 ft | 482 kts | 319° |
| 2026-04-26 01:40 | 14.21983 | 1.61550 | 31810 ft | 481 kts | 319° |
| 2026-04-26 01:40 | 14.27250 | 1.57317 | 31803 ft | 479 kts | 319° |
| 2026-04-26 01:41 | 14.32508 | 1.53087 | 31804 ft | 479 kts | 319° |
| 2026-04-26 01:41 | 14.37763 | 1.48857 | 31800 ft | 479 kts | 319° |
| 2026-04-26 01:42 | 14.43017 | 1.44627 | 31799 ft | 479 kts | 319° |
| 2026-04-26 01:42 | 14.48269 | 1.40395 | 31801 ft | 479 kts | 319° |
| 2026-04-26 01:43 | 14.53521 | 1.36161 | 31792 ft | 479 kts | 319° |
| 2026-04-26 01:43 | 14.58778 | 1.31920 | 31794 ft | 479 kts | 319° |
| 2026-04-26 01:44 | 14.64030 | 1.27680 | 31798 ft | 479 kts | 319° |
| 2026-04-26 01:44 | 14.69243 | 1.23470 | 31794 ft | 479 kts | 319° |
| 2026-04-26 01:45 | 14.74496 | 1.19224 | 31794 ft | 479 kts | 319° |
| 2026-04-26 01:45 | 14.79741 | 1.14982 | 31794 ft | 479 kts | 319° |
| 2026-04-26 01:46 | 14.84987 | 1.10737 | 31792 ft | 479 kts | 319° |
| 2026-04-26 01:46 | 14.90240 | 1.06483 | 31791 ft | 479 kts | 319° |
| 2026-04-26 01:47 | 14.95492 | 1.02229 | 31794 ft | 479 kts | 319° |
| 2026-04-26 01:47 | 14.99849 | 0.98696 | 31792 ft | 479 kts | 319° |
| 2026-04-26 01:48 | 15.05100 | 0.94436 | 31791 ft | 479 kts | 319° |
| 2026-04-26 01:48 | 15.10349 | 0.90174 | 31791 ft | 479 kts | 319° |
| 2026-04-26 01:49 | 15.15596 | 0.85913 | 31789 ft | 479 kts | 319° |
| 2026-04-26 01:49 | 15.20842 | 0.81649 | 31789 ft | 479 kts | 319° |
| 2026-04-26 01:50 | 15.26093 | 0.77379 | 31788 ft | 479 kts | 319° |
| 2026-04-26 01:50 | 15.31335 | 0.73114 | 31793 ft | 479 kts | 319° |
| 2026-04-26 01:51 | 15.36577 | 0.68846 | 31785 ft | 479 kts | 319° |
| 2026-04-26 01:51 | 15.41815 | 0.64578 | 31784 ft | 479 kts | 319° |
| 2026-04-26 01:52 | 15.47052 | 0.60306 | 31784 ft | 479 kts | 319° |
| 2026-04-26 01:52 | 15.52280 | 0.56030 | 31783 ft | 479 kts | 319° |
| 2026-04-26 01:53 | 15.57515 | 0.51748 | 31781 ft | 479 kts | 319° |
| 2026-04-26 01:53 | 15.62746 | 0.47466 | 31783 ft | 479 kts | 319° |
| 2026-04-26 01:54 | 15.67974 | 0.43189 | 31789 ft | 478 kts | 319° |
| 2026-04-26 01:54 | 15.73156 | 0.38942 | 31784 ft | 478 kts | 319° |
| 2026-04-26 01:55 | 15.78372 | 0.34665 | 31781 ft | 477 kts | 319° |
| 2026-04-26 01:55 | 15.83583 | 0.30391 | 31782 ft | 477 kts | 319° |
| 2026-04-26 01:56 | 15.88793 | 0.26114 | 31782 ft | 477 kts | 319° |
| 2026-04-26 01:56 | 15.94006 | 0.21834 | 31781 ft | 477 kts | 319° |
| 2026-04-26 01:57 | 15.99217 | 0.17554 | 31784 ft | 477 kts | 319° |
| 2026-04-26 01:57 | 16.04415 | 0.13286 | 31791 ft | 475 kts | 319° |
| 2026-04-26 01:58 | 16.09600 | 0.09022 | 31787 ft | 475 kts | 319° |
| 2026-04-26 01:58 | 16.14714 | 0.04813 | 31780 ft | 475 kts | 319° |
| 2026-04-26 01:59 | 16.20218 | 0.00230 | 31778 ft | 474 kts | 316° |
| 2026-04-26 01:59 | 16.24989 | -0.04413 | 31781 ft | 472 kts | 311° |
| 2026-04-26 02:00 | 16.29348 | -0.09506 | 31800 ft | 470 kts | 308° |
| 2026-04-26 02:00 | 16.33582 | -0.14703 | 31785 ft | 470 kts | 308° |
| 2026-04-26 02:01 | 16.37804 | -0.19893 | 31793 ft | 468 kts | 308° |
| 2026-04-26 02:01 | 16.42007 | -0.25067 | 31773 ft | 467 kts | 308° |
| 2026-04-26 02:02 | 16.46210 | -0.30245 | 31796 ft | 467 kts | 308° |
| 2026-04-26 02:02 | 16.50411 | -0.35422 | 31778 ft | 467 kts | 307° |
| 2026-04-26 02:03 | 16.54612 | -0.40603 | 31773 ft | 467 kts | 307° |
| 2026-04-26 02:03 | 16.58807 | -0.45781 | 31775 ft | 467 kts | 307° |
| 2026-04-26 02:04 | 16.63005 | -0.50968 | 31786 ft | 467 kts | 307° |
| 2026-04-26 02:04 | 16.67202 | -0.56156 | 31771 ft | 467 kts | 307° |
| 2026-04-26 02:05 | 16.71397 | -0.61343 | 31788 ft | 466 kts | 307° |
| 2026-04-26 02:05 | 16.75570 | -0.66508 | 31783 ft | 464 kts | 307° |
| 2026-04-26 02:06 | 16.79735 | -0.71670 | 31781 ft | 464 kts | 307° |
| 2026-04-26 02:06 | 16.83869 | -0.76798 | 31773 ft | 465 kts | 307° |
| 2026-04-26 02:07 | 16.88036 | -0.81970 | 31777 ft | 465 kts | 307° |
| 2026-04-26 02:07 | 16.92206 | -0.87146 | 31779 ft | 465 kts | 307° |
| 2026-04-26 02:08 | 16.96387 | -0.92341 | 31776 ft | 465 kts | 307° |
| 2026-04-26 02:08 | 17.00550 | -0.97517 | 31777 ft | 465 kts | 307° |
| 2026-04-26 02:09 | 17.04711 | -1.02694 | 31796 ft | 465 kts | 307° |
| 2026-04-26 02:09 | 17.08866 | -1.07863 | 31780 ft | 463 kts | 307° |
| 2026-04-26 02:10 | 17.13004 | -1.13024 | 31781 ft | 463 kts | 307° |
| 2026-04-26 02:10 | 17.17136 | -1.18180 | 31778 ft | 462 kts | 307° |
| 2026-04-26 02:11 | 17.21267 | -1.23337 | 31780 ft | 462 kts | 307° |
| 2026-04-26 02:11 | 17.25395 | -1.28493 | 31778 ft | 462 kts | 307° |
| 2026-04-26 02:12 | 17.29521 | -1.33652 | 31778 ft | 462 kts | 307° |
| 2026-04-26 02:12 | 17.33650 | -1.38817 | 31777 ft | 462 kts | 307° |
| 2026-04-26 02:13 | 17.37744 | -1.43943 | 31777 ft | 462 kts | 307° |
| 2026-04-26 02:13 | 17.41857 | -1.49097 | 31783 ft | 459 kts | 307° |
| 2026-04-26 02:14 | 17.45950 | -1.54231 | 31772 ft | 458 kts | 307° |
| 2026-04-26 02:14 | 17.50036 | -1.59359 | 31778 ft | 458 kts | 307° |
| 2026-04-26 02:15 | 17.54122 | -1.64489 | 31778 ft | 458 kts | 307° |
| 2026-04-26 02:15 | 17.58205 | -1.69619 | 31778 ft | 458 kts | 307° |
| 2026-04-26 02:16 | 17.62286 | -1.74752 | 31779 ft | 458 kts | 307° |
| 2026-04-26 02:16 | 17.66366 | -1.79887 | 31779 ft | 458 kts | 307° |
| 2026-04-26 02:17 | 17.70444 | -1.85027 | 31774 ft | 458 kts | 306° |
| 2026-04-26 02:17 | 17.74240 | -1.90379 | 31786 ft | 456 kts | 301° |
| 2026-04-26 02:18 | 17.77592 | -1.96013 | 31779 ft | 454 kts | 299° |
| 2026-04-26 02:18 | 17.80866 | -2.01689 | 31775 ft | 454 kts | 299° |
| 2026-04-26 02:19 | 17.84135 | -2.07367 | 31777 ft | 454 kts | 299° |
| 2026-04-26 02:19 | 17.87403 | -2.13050 | 31775 ft | 454 kts | 298° |
| 2026-04-26 02:20 | 17.90671 | -2.18738 | 31771 ft | 454 kts | 298° |
| 2026-04-26 02:20 | 17.93934 | -2.24423 | 31772 ft | 454 kts | 298° |
| 2026-04-26 02:21 | 17.97198 | -2.30115 | 31765 ft | 454 kts | 299° |
| 2026-04-26 02:21 | 18.00462 | -2.35812 | 31771 ft | 455 kts | 299° |
| 2026-04-26 02:22 | 18.03177 | -2.40553 | 31773 ft | 455 kts | 299° |
| 2026-04-26 02:22 | 18.06971 | -2.47184 | 31775 ft | 455 kts | 299° |
| 2026-04-26 02:23 | 18.10234 | -2.52892 | 31776 ft | 455 kts | 299° |
| 2026-04-26 02:23 | 18.12966 | -2.57676 | 31775 ft | 455 kts | 299° |
| 2026-04-26 02:24 | 18.15691 | -2.62452 | 31773 ft | 455 kts | 299° |
| 2026-04-26 02:24 | 18.18950 | -2.68168 | 31768 ft | 455 kts | 299° |
| 2026-04-26 02:25 | 18.22210 | -2.73892 | 31772 ft | 456 kts | 299° |
| 2026-04-26 02:25 | 18.25450 | -2.79585 | 31778 ft | 456 kts | 299° |
| 2026-04-26 02:26 | 18.28711 | -2.85317 | 31776 ft | 456 kts | 299° |
| 2026-04-26 02:26 | 18.31968 | -2.91051 | 31781 ft | 456 kts | 299° |
| 2026-04-26 02:27 | 18.35225 | -2.96789 | 31776 ft | 456 kts | 299° |
| 2026-04-26 02:27 | 18.38478 | -3.02525 | 31778 ft | 456 kts | 298° |
| 2026-04-26 02:28 | 18.41729 | -3.08262 | 31794 ft | 454 kts | 298° |
| 2026-04-26 02:28 | 18.44955 | -3.13961 | 31781 ft | 452 kts | 298° |
| 2026-04-26 02:29 | 18.48174 | -3.19652 | 31781 ft | 452 kts | 298° |
| 2026-04-26 02:29 | 18.51393 | -3.25349 | 31778 ft | 452 kts | 298° |
| 2026-04-26 02:30 | 18.54609 | -3.31044 | 31779 ft | 452 kts | 298° |
| 2026-04-26 02:30 | 18.57825 | -3.36745 | 31777 ft | 452 kts | 298° |
| 2026-04-26 02:31 | 18.61037 | -3.42443 | 31781 ft | 452 kts | 298° |
| 2026-04-26 02:31 | 18.64249 | -3.48147 | 31777 ft | 452 kts | 298° |
| 2026-04-26 02:32 | 18.67457 | -3.53850 | 31779 ft | 452 kts | 298° |
| 2026-04-26 02:32 | 18.70666 | -3.59562 | 31778 ft | 452 kts | 298° |
| 2026-04-26 02:33 | 18.73869 | -3.65270 | 31776 ft | 452 kts | 298° |
| 2026-04-26 02:33 | 18.77066 | -3.70971 | 31786 ft | 449 kts | 298° |
| 2026-04-26 02:34 | 18.80249 | -3.76654 | 31780 ft | 449 kts | 298° |
| 2026-04-26 02:34 | 18.83432 | -3.82341 | 31788 ft | 449 kts | 298° |
| 2026-04-26 02:35 | 18.86611 | -3.88024 | 31783 ft | 449 kts | 298° |
| 2026-04-26 02:35 | 18.89785 | -3.93705 | 31781 ft | 449 kts | 298° |
| 2026-04-26 02:36 | 18.92957 | -3.99386 | 31780 ft | 449 kts | 298° |
| 2026-04-26 02:36 | 18.96126 | -4.05068 | 31780 ft | 449 kts | 298° |
| 2026-04-26 02:37 | 18.99274 | -4.10718 | 31778 ft | 449 kts | 298° |
| 2026-04-26 02:37 | 19.02439 | -4.16402 | 31777 ft | 449 kts | 298° |
| 2026-04-26 02:38 | 19.05606 | -4.22096 | 31780 ft | 449 kts | 298° |
| 2026-04-26 02:38 | 19.08767 | -4.27782 | 31788 ft | 447 kts | 298° |
| 2026-04-26 02:39 | 19.11913 | -4.33448 | 31784 ft | 446 kts | 298° |
| 2026-04-26 02:39 | 19.15055 | -4.39114 | 31784 ft | 446 kts | 298° |
| 2026-04-26 02:40 | 19.18192 | -4.44776 | 31784 ft | 446 kts | 298° |
| 2026-04-26 02:40 | 19.21332 | -4.50447 | 31786 ft | 446 kts | 298° |
| 2026-04-26 02:41 | 19.24469 | -4.56119 | 31785 ft | 446 kts | 298° |
| 2026-04-26 02:41 | 19.27605 | -4.61792 | 31788 ft | 446 kts | 298° |
| 2026-04-26 02:42 | 19.30742 | -4.67473 | 31791 ft | 446 kts | 298° |
| 2026-04-26 02:42 | 19.33875 | -4.73153 | 31790 ft | 446 kts | 298° |
| 2026-04-26 02:43 | 19.38732 | -4.81583 | 31789 ft | 448 kts | 302° |
| 2026-04-26 02:43 | 19.42463 | -4.86882 | 31797 ft | 448 kts | 304° |
| 2026-04-26 02:44 | 19.46282 | -4.92094 | 31800 ft | 447 kts | 304° |
| 2026-04-26 02:44 | 19.50107 | -4.97307 | 31797 ft | 447 kts | 304° |
| 2026-04-26 02:45 | 19.53906 | -5.02488 | 31798 ft | 448 kts | 304° |
| 2026-04-26 02:45 | 19.57730 | -5.07707 | 31797 ft | 448 kts | 304° |
| 2026-04-26 02:46 | 19.61556 | -5.12931 | 31796 ft | 448 kts | 304° |
| 2026-04-26 02:46 | 19.65379 | -5.18156 | 31796 ft | 448 kts | 304° |
| 2026-04-26 02:47 | 19.69198 | -5.23380 | 31800 ft | 448 kts | 304° |
| 2026-04-26 02:47 | 19.72391 | -5.27752 | 31823 ft | 447 kts | 304° |
| 2026-04-26 02:48 | 19.76200 | -5.32967 | 31794 ft | 446 kts | 304° |
| 2026-04-26 02:48 | 19.80001 | -5.38179 | 31804 ft | 446 kts | 304° |
| 2026-04-26 02:49 | 19.83803 | -5.43398 | 31810 ft | 446 kts | 304° |
| 2026-04-26 02:49 | 19.87602 | -5.48618 | 31794 ft | 446 kts | 304° |
| 2026-04-26 02:50 | 19.91401 | -5.53841 | 31805 ft | 446 kts | 304° |
| 2026-04-26 02:50 | 19.95197 | -5.59066 | 31806 ft | 446 kts | 304° |
| 2026-04-26 02:51 | 19.98994 | -5.64295 | 31795 ft | 446 kts | 304° |
| 2026-04-26 02:51 | 20.02790 | -5.69528 | 31809 ft | 446 kts | 304° |
| 2026-04-26 02:52 | 20.06582 | -5.74755 | 31811 ft | 445 kts | 303° |
| 2026-04-26 02:52 | 20.10338 | -5.79943 | 31806 ft | 445 kts | 303° |
| 2026-04-26 02:53 | 20.14117 | -5.85169 | 31802 ft | 445 kts | 303° |
| 2026-04-26 02:53 | 20.17894 | -5.90395 | 31805 ft | 445 kts | 303° |
| 2026-04-26 02:54 | 20.21671 | -5.95625 | 31808 ft | 445 kts | 303° |
| 2026-04-26 02:54 | 20.25445 | -6.00855 | 31810 ft | 445 kts | 303° |
| 2026-04-26 02:55 | 20.29217 | -6.06087 | 31806 ft | 445 kts | 303° |
| 2026-04-26 02:55 | 20.32990 | -6.11325 | 31807 ft | 445 kts | 303° |
| 2026-04-26 02:56 | 20.36767 | -6.16572 | 31832 ft | 446 kts | 303° |
| 2026-04-26 02:56 | 20.40534 | -6.21811 | 31817 ft | 444 kts | 303° |
| 2026-04-26 02:57 | 20.44294 | -6.27048 | 31818 ft | 444 kts | 303° |
| 2026-04-26 02:57 | 20.48053 | -6.32289 | 31817 ft | 444 kts | 303° |
| 2026-04-26 02:58 | 20.51810 | -6.37530 | 31816 ft | 444 kts | 303° |
| 2026-04-26 02:58 | 20.55569 | -6.42777 | 31819 ft | 444 kts | 303° |
| 2026-04-26 02:59 | 20.59325 | -6.48025 | 31819 ft | 445 kts | 303° |
| 2026-04-26 02:59 | 20.63079 | -6.53276 | 31821 ft | 445 kts | 303° |
| 2026-04-26 03:00 | 20.66839 | -6.58537 | 31819 ft | 445 kts | 303° |
| 2026-04-26 03:00 | 20.70590 | -6.63794 | 31837 ft | 444 kts | 303° |
| 2026-04-26 03:01 | 20.74331 | -6.69043 | 31828 ft | 444 kts | 303° |
| 2026-04-26 03:01 | 20.78045 | -6.74259 | 31825 ft | 444 kts | 303° |
| 2026-04-26 03:02 | 20.81784 | -6.79514 | 31825 ft | 444 kts | 303° |
| 2026-04-26 03:02 | 20.85523 | -6.84774 | 31825 ft | 444 kts | 303° |
| 2026-04-26 03:03 | 20.89259 | -6.90034 | 31829 ft | 444 kts | 303° |
| 2026-04-26 03:03 | 20.92998 | -6.95303 | 31832 ft | 444 kts | 303° |
| 2026-04-26 03:04 | 20.96732 | -7.00569 | 31833 ft | 444 kts | 303° |
| 2026-04-26 03:04 | 21.00461 | -7.05832 | 31850 ft | 443 kts | 302° |
| 2026-04-26 03:05 | 21.04187 | -7.11095 | 31833 ft | 443 kts | 302° |
| 2026-04-26 03:05 | 21.07906 | -7.16358 | 31837 ft | 443 kts | 302° |
| 2026-04-26 03:06 | 21.11628 | -7.21628 | 31840 ft | 443 kts | 302° |
| 2026-04-26 03:06 | 21.15344 | -7.26893 | 31845 ft | 443 kts | 302° |
| 2026-04-26 03:07 | 21.19059 | -7.32163 | 31834 ft | 443 kts | 302° |
| 2026-04-26 03:07 | 21.22771 | -7.37433 | 31849 ft | 443 kts | 302° |
| 2026-04-26 03:08 | 21.26483 | -7.42708 | 31837 ft | 443 kts | 302° |
| 2026-04-26 03:08 | 21.30192 | -7.47984 | 31850 ft | 443 kts | 302° |
| 2026-04-26 03:09 | 21.33901 | -7.53265 | 31839 ft | 443 kts | 302° |
| 2026-04-26 03:09 | 21.37581 | -7.58510 | 31841 ft | 443 kts | 302° |
| 2026-04-26 03:10 | 21.41289 | -7.63798 | 31845 ft | 442 kts | 302° |
| 2026-04-26 03:10 | 21.44991 | -7.69083 | 31844 ft | 442 kts | 302° |
| 2026-04-26 03:11 | 21.48688 | -7.74368 | 31847 ft | 442 kts | 302° |
| 2026-04-26 03:11 | 21.52388 | -7.79661 | 31846 ft | 442 kts | 302° |
| 2026-04-26 03:12 | 21.55458 | -7.84057 | 31846 ft | 442 kts | 302° |
| 2026-04-26 03:12 | 21.59154 | -7.89354 | 31846 ft | 442 kts | 302° |
| 2026-04-26 03:13 | 21.62240 | -7.93776 | 31860 ft | 442 kts | 302° |
| 2026-04-26 03:13 | 21.65930 | -7.99074 | 31853 ft | 442 kts | 302° |
| 2026-04-26 03:14 | 21.69614 | -8.04370 | 31849 ft | 442 kts | 302° |
| 2026-04-26 03:14 | 21.73298 | -8.09671 | 31847 ft | 442 kts | 302° |
| 2026-04-26 03:15 | 21.76985 | -8.14979 | 31851 ft | 442 kts | 302° |
| 2026-04-26 03:15 | 21.80665 | -8.20282 | 31856 ft | 442 kts | 302° |
| 2026-04-26 03:16 | 21.84349 | -8.25597 | 31857 ft | 442 kts | 302° |
| 2026-04-26 03:16 | 21.88027 | -8.30908 | 31855 ft | 442 kts | 302° |
| 2026-04-26 03:17 | 21.91703 | -8.36221 | 31871 ft | 442 kts | 302° |
| 2026-04-26 03:17 | 21.95382 | -8.41540 | 31859 ft | 442 kts | 301° |
| 2026-04-26 03:18 | 21.99058 | -8.46867 | 31860 ft | 442 kts | 301° |
| 2026-04-26 03:18 | 22.02730 | -8.52191 | 31863 ft | 442 kts | 301° |
| 2026-04-26 03:19 | 22.06400 | -8.57518 | 31860 ft | 442 kts | 301° |
| 2026-04-26 03:19 | 22.10041 | -8.62871 | 31858 ft | 441 kts | 299° |
| 2026-04-26 03:20 | 22.13283 | -8.68460 | 31862 ft | 438 kts | 295° |
| 2026-04-26 03:20 | 22.16033 | -8.74301 | 31866 ft | 435 kts | 291° |
| 2026-04-26 03:21 | 22.18603 | -8.80223 | 31864 ft | 435 kts | 291° |
| 2026-04-26 03:21 | 22.21160 | -8.86147 | 31862 ft | 435 kts | 291° |
| 2026-04-26 03:22 | 22.23696 | -8.92032 | 31870 ft | 435 kts | 290° |
| 2026-04-26 03:22 | 22.26243 | -8.97958 | 31866 ft | 435 kts | 290° |
| 2026-04-26 03:23 | 22.28786 | -9.03883 | 31866 ft | 435 kts | 290° |
| 2026-04-26 03:23 | 22.31328 | -9.09814 | 31873 ft | 435 kts | 290° |
| 2026-04-26 03:24 | 22.33867 | -9.15742 | 31869 ft | 434 kts | 290° |
| 2026-04-26 03:24 | 22.36400 | -9.21666 | 31868 ft | 434 kts | 290° |
| 2026-04-26 03:25 | 22.38931 | -9.27591 | 31873 ft | 434 kts | 290° |
| 2026-04-26 03:25 | 22.41461 | -9.33523 | 31873 ft | 434 kts | 290° |
| 2026-04-26 03:26 | 22.43989 | -9.39455 | 31873 ft | 434 kts | 290° |
| 2026-04-26 03:26 | 22.46514 | -9.45387 | 31873 ft | 434 kts | 290° |
| 2026-04-26 03:27 | 22.49035 | -9.51319 | 31875 ft | 434 kts | 290° |
| 2026-04-26 03:27 | 22.51558 | -9.57256 | 31889 ft | 434 kts | 290° |
| 2026-04-26 03:28 | 22.54059 | -9.63154 | 31878 ft | 434 kts | 290° |
| 2026-04-26 03:28 | 22.56577 | -9.69100 | 31885 ft | 434 kts | 290° |
| 2026-04-26 03:29 | 22.59091 | -9.75045 | 31884 ft | 434 kts | 290° |
| 2026-04-26 03:29 | 22.61603 | -9.80992 | 31885 ft | 434 kts | 290° |
| 2026-04-26 03:30 | 22.64114 | -9.86945 | 31887 ft | 435 kts | 290° |
| 2026-04-26 03:30 | 22.66625 | -9.92906 | 31887 ft | 435 kts | 290° |
| 2026-04-26 03:31 | 22.69137 | -9.98872 | 31892 ft | 435 kts | 290° |
| 2026-04-26 03:31 | 22.71643 | -10.04837 | 31890 ft | 435 kts | 290° |
| 2026-04-26 03:32 | 22.74149 | -10.10806 | 31890 ft | 435 kts | 290° |
| 2026-04-26 03:32 | 22.76653 | -10.16776 | 31889 ft | 435 kts | 290° |
| 2026-04-26 03:33 | 22.79156 | -10.22752 | 31899 ft | 436 kts | 290° |
| 2026-04-26 03:33 | 22.81662 | -10.28744 | 31898 ft | 436 kts | 290° |
| 2026-04-26 03:34 | 22.84167 | -10.34743 | 31897 ft | 436 kts | 290° |
| 2026-04-26 03:34 | 22.86679 | -10.40765 | 32368 ft | 436 kts | 290° |
| 2026-04-26 03:35 | 22.87861 | -10.43776 | 32848 ft | 430 kts | 287° |
| 2026-04-26 03:35 | 22.88906 | -10.46797 | 33341 ft | 425 kts | 286° |
| 2026-04-26 03:35 | 22.89912 | -10.49806 | 33774 ft | 422 kts | 285° |
| 2026-04-26 03:35 | 22.90909 | -10.52800 | 33887 ft | 421 kts | 285° |
| 2026-04-26 03:36 | 22.92889 | -10.58764 | 33898 ft | 419 kts | 285° |
| 2026-04-26 03:36 | 22.94865 | -10.64734 | 33904 ft | 420 kts | 285° |
| 2026-04-26 03:37 | 22.96824 | -10.70660 | 33903 ft | 419 kts | 285° |
| 2026-04-26 03:37 | 22.98794 | -10.76628 | 33905 ft | 419 kts | 285° |
| 2026-04-26 03:38 | 23.00762 | -10.82596 | 33906 ft | 420 kts | 285° |
| 2026-04-26 03:38 | 23.02728 | -10.88567 | 33910 ft | 420 kts | 285° |
| 2026-04-26 03:39 | 23.04692 | -10.94540 | 33915 ft | 419 kts | 285° |
| 2026-04-26 03:39 | 23.06656 | -11.00528 | 33917 ft | 421 kts | 285° |
| 2026-04-26 03:40 | 23.08624 | -11.06528 | 33917 ft | 421 kts | 285° |
| 2026-04-26 03:40 | 23.10589 | -11.12528 | 33915 ft | 421 kts | 285° |
| 2026-04-26 03:41 | 23.12551 | -11.18530 | 33918 ft | 421 kts | 285° |
| 2026-04-26 03:41 | 23.14511 | -11.24533 | 33918 ft | 421 kts | 285° |
| 2026-04-26 03:42 | 23.16468 | -11.30538 | 33921 ft | 421 kts | 285° |
| 2026-04-26 03:42 | 23.18424 | -11.36550 | 33922 ft | 421 kts | 285° |
| 2026-04-26 03:43 | 23.20379 | -11.42564 | 33923 ft | 421 kts | 285° |
| 2026-04-26 03:43 | 23.22331 | -11.48580 | 33923 ft | 421 kts | 285° |
| 2026-04-26 03:44 | 23.24268 | -11.54556 | 33926 ft | 422 kts | 285° |
| 2026-04-26 03:44 | 23.26217 | -11.60580 | 33929 ft | 421 kts | 285° |
| 2026-04-26 03:45 | 23.28164 | -11.66606 | 33932 ft | 421 kts | 285° |
| 2026-04-26 03:45 | 23.30108 | -11.72630 | 33932 ft | 421 kts | 285° |
| 2026-04-26 03:46 | 23.32050 | -11.78662 | 33944 ft | 423 kts | 285° |
| 2026-04-26 03:47 | 23.34972 | -11.87748 | 33940 ft | 424 kts | 285° |
| 2026-04-26 03:47 | 23.36918 | -11.93811 | 33935 ft | 424 kts | 285° |
| 2026-04-26 03:48 | 23.38862 | -11.99876 | 33933 ft | 424 kts | 285° |
| 2026-04-26 03:48 | 23.40802 | -12.05939 | 33939 ft | 424 kts | 285° |
| 2026-04-26 03:49 | 23.42742 | -12.12013 | 33944 ft | 424 kts | 285° |
| 2026-04-26 03:49 | 23.44678 | -12.18083 | 33943 ft | 424 kts | 285° |
| 2026-04-26 03:50 | 23.46612 | -12.24154 | 33940 ft | 424 kts | 285° |
| 2026-04-26 03:50 | 23.48544 | -12.30227 | 33941 ft | 424 kts | 285° |
| 2026-04-26 03:51 | 23.50475 | -12.36307 | 33941 ft | 424 kts | 285° |
| 2026-04-26 03:51 | 23.52401 | -12.42382 | 33954 ft | 424 kts | 285° |
| 2026-04-26 03:52 | 23.54326 | -12.48464 | 33950 ft | 424 kts | 285° |
| 2026-04-26 03:52 | 23.56250 | -12.54551 | 33971 ft | 425 kts | 285° |
| 2026-04-26 03:53 | 23.58178 | -12.60662 | 33950 ft | 426 kts | 285° |
| 2026-04-26 03:53 | 23.60108 | -12.66786 | 33949 ft | 427 kts | 285° |
| 2026-04-26 03:54 | 23.62037 | -12.72917 | 33951 ft | 427 kts | 285° |
| 2026-04-26 03:54 | 23.63961 | -12.79044 | 33953 ft | 427 kts | 285° |
| 2026-04-26 03:55 | 23.65873 | -12.85140 | 33958 ft | 427 kts | 285° |
| 2026-04-26 03:55 | 23.68167 | -12.91154 | 33956 ft | 433 kts | 293° |
| 2026-04-26 03:56 | 23.71483 | -12.96702 | 33957 ft | 440 kts | 302° |
| 2026-04-26 03:56 | 23.75764 | -13.01576 | 33959 ft | 450 kts | 313° |
| 2026-04-26 03:57 | 23.80910 | -13.05592 | 33963 ft | 458 kts | 320° |
| 2026-04-26 03:57 | 23.86351 | -13.09251 | 33978 ft | 460 kts | 321° |
| 2026-04-26 03:58 | 23.91821 | -13.12899 | 33972 ft | 460 kts | 321° |
| 2026-04-26 03:58 | 23.97293 | -13.16553 | 33967 ft | 461 kts | 321° |
| 2026-04-26 03:59 | 23.99101 | -13.17761 | 33970 ft | 461 kts | 321° |